createdAt,value
2022-12-19T00:08:08.778Z,11.66
2022-12-19T00:20:02.099Z,11.64
2022-12-19T00:32:02.226Z,11.63
2022-12-19T00:44:02.215Z,11.62
2022-12-19T00:56:02.098Z,11.59
2022-12-19T01:08:02.104Z,11.60
2022-12-19T01:20:02.213Z,11.59
2022-12-19T01:32:02.255Z,11.58
2022-12-19T01:44:02.111Z,11.57
2022-12-19T01:56:09.301Z,11.55
2022-12-19T02:08:02.095Z,11.55
2022-12-19T02:20:02.213Z,11.53
2022-12-19T02:32:02.258Z,11.53
2022-12-19T02:44:02.084Z,11.52
2022-12-19T02:56:02.808Z,11.51
2022-12-19T03:08:02.103Z,11.49
2022-12-19T03:20:02.197Z,11.49
2022-12-19T03:32:02.171Z,11.46
2022-12-19T03:44:02.108Z,11.47
2022-12-19T03:56:02.223Z,11.45
2022-12-19T04:08:02.135Z,11.44
2022-12-19T04:20:02.284Z,11.43
2022-12-19T04:32:02.188Z,11.42
2022-12-19T04:44:02.181Z,11.41
2022-12-19T04:56:02.122Z,11.40
2022-12-19T05:08:02.126Z,11.39
2022-12-19T05:20:02.130Z,11.38
2022-12-19T05:32:02.125Z,11.37
2022-12-19T05:44:02.220Z,11.36
2022-12-19T05:56:02.123Z,11.35
2022-12-19T06:08:02.233Z,11.34
2022-12-19T06:20:02.109Z,11.33
2022-12-19T06:32:02.176Z,11.32
2022-12-19T06:44:02.127Z,11.31
2022-12-19T06:56:02.209Z,11.30
2022-12-19T07:08:02.200Z,11.29
2022-12-19T07:20:02.208Z,11.28
2022-12-19T07:32:02.134Z,11.27
2022-12-19T07:44:02.109Z,11.26
2022-12-19T07:56:02.182Z,11.24
2022-12-19T08:08:02.217Z,11.22
2022-12-19T08:20:02.102Z,11.23
2022-12-19T08:32:02.198Z,11.22
2022-12-19T08:44:02.252Z,11.21
2022-12-19T08:56:02.185Z,11.21
2022-12-19T09:08:02.120Z,11.19
2022-12-19T09:20:02.218Z,11.20
2022-12-19T09:32:02.203Z,11.19
2022-12-19T09:44:02.246Z,11.19
2022-12-19T09:56:02.109Z,11.18
2022-12-19T10:08:09.809Z,11.17
2022-12-19T10:20:02.123Z,11.17
2022-12-19T10:32:02.279Z,11.17
2022-12-19T10:44:02.299Z,11.16
2022-12-19T10:56:02.157Z,11.15
2022-12-19T11:08:02.189Z,11.15
2022-12-19T11:29:30.189Z,11.15
2022-12-19T11:32:39.452Z,11.13
2022-12-19T11:44:02.232Z,11.13
2022-12-19T11:56:02.101Z,11.13
2022-12-19T12:09:48.682Z,11.13
2022-12-19T12:31:09.928Z,11.12
2022-12-19T12:35:33.276Z,11.11
2022-12-19T12:44:02.108Z,11.11
2022-12-19T12:56:02.121Z,11.10
2022-12-19T13:08:02.124Z,11.10
2022-12-19T13:20:02.222Z,11.09
2022-12-19T13:32:02.227Z,11.09
2022-12-19T13:44:02.196Z,11.08
2022-12-19T13:56:02.112Z,11.07
2022-12-19T14:08:02.545Z,11.07
2022-12-19T14:20:48.952Z,11.06
2022-12-19T14:33:39.847Z,11.05
2022-12-19T14:53:10.891Z,11.05
2022-12-19T14:56:27.690Z,11.04
2022-12-19T15:08:02.111Z,11.03
2022-12-19T15:20:02.105Z,11.02
2022-12-19T15:32:02.229Z,11.00
2022-12-19T15:44:04.014Z,11.00
2022-12-19T15:56:02.106Z,11.00
2022-12-19T16:08:02.142Z,10.99
2022-12-19T16:20:02.114Z,10.98
2022-12-19T16:32:02.200Z,10.98
2022-12-19T16:44:02.211Z,10.97
2022-12-19T16:56:02.117Z,10.96
2022-12-19T17:08:02.196Z,10.96
2022-12-19T17:20:02.217Z,10.95
2022-12-19T17:32:02.185Z,10.95
2022-12-19T17:44:02.131Z,10.93
2022-12-19T17:56:02.109Z,10.93
2022-12-19T18:08:02.127Z,10.93
2022-12-19T18:20:02.170Z,10.93
2022-12-19T18:32:02.106Z,10.92
2022-12-19T18:44:02.238Z,10.92
2022-12-19T18:56:02.122Z,10.91
2022-12-19T19:08:02.180Z,10.91
2022-12-19T19:20:02.580Z,10.90
2022-12-19T19:32:02.473Z,10.88
2022-12-19T19:44:02.131Z,10.90
2022-12-19T19:56:02.261Z,10.89
2022-12-19T20:08:02.138Z,10.88
2022-12-19T20:20:02.548Z,10.88
2022-12-19T20:32:02.156Z,10.88
2022-12-19T20:44:02.548Z,10.87
2022-12-19T20:56:02.443Z,10.87
2022-12-19T21:08:02.166Z,10.87
2022-12-19T21:20:02.124Z,10.85
2022-12-19T21:32:02.401Z,10.86
2022-12-19T21:44:02.590Z,10.86
2022-12-19T21:56:02.466Z,10.84
2022-12-19T22:08:02.481Z,10.85
2022-12-19T22:20:02.372Z,10.84
2022-12-19T22:32:02.439Z,10.84
2022-12-19T22:44:02.561Z,10.84
2022-12-19T22:56:02.483Z,10.83
2022-12-19T23:08:02.396Z,10.82
2022-12-19T23:20:02.400Z,10.83
2022-12-19T23:32:02.546Z,10.83
2022-12-19T23:44:02.117Z,10.82
2022-12-19T23:56:02.401Z,10.82
